Impacts TAF Board
For situational awareness. Not to be used for flight planning purposes.
IDs:

KFLL - Ft Lauderdale-Hollyw, FL, US

Issued at 2104 UTC 20 Jun 2019
Updated at 2146 UTC 20 Jun 2019
Potential Impact None Slight Moderate High
Time<<21/10Z 21/11Z 21/12Z 21/13Z 21/14Z 21/15Z 21/16Z 21/17Z 21/18Z 21/19Z 21/20Z 21/21Z 21/22Z>>
Type PRVL PRVL PRVL PRVL PRVL PRVL PRVL PRVL PRVL PRVL PRVL PRVL PRVL
VIS >6 >6 >6 >6 >6 >6 >6 >6 >6 >6 >6 >6 >6
CIG -- -- -- -- -- -- -- -- -- -- -- -- --
Cover SCT SCT SCT SCT SCT SCT SCT SCT SCT SCT SCT SCT SCT
FltCat VFR VFR VFR VFR VFR VFR VFR VFR VFR VFR VFR VFR VFR
WX -- -- -- -- -- -- -- -- -- -- -- -- --
WDir VRB VRB VRB VRB VRB 190 190 190 190 190 190 190 190
WSpd 4 4 4 4 4 9 9 9 9 9 9 9 9
WGst -- -- -- -- -- -- -- -- -- -- -- -- --
Raw TAF
KFLL 202104Z 2021/2124 14012KT P6SM FEW040 SCT150
  FM210100 VRB04KT P6SM SCT025
  FM211500 19009KT P6SM SCT035


METAR Board
Radar Display
Forecast Discussion
For situational awareness. Not to be used for flight planning purposes.